sensor_id;sensor_type;location;lat;lon;timestamp;P1;durP1;ratioP1;P2;durP2;ratioP2
12947;SDS011;6539;49.476;8.484;2023-04-29T00:01:28;7.20;;;6.50;;
12947;SDS011;6539;49.476;8.484;2023-04-29T00:03:58;6.30;;;5.70;;
12947;SDS011;6539;49.476;8.484;2023-04-29T00:06:24;5.80;;;5.30;;
12947;SDS011;6539;49.476;8.484;2023-04-29T00:08:52;6.97;;;5.73;;
12947;SDS011;6539;49.476;8.484;2023-04-29T00:11:17;6.03;;;5.43;;
12947;SDS011;6539;49.476;8.484;2023-04-29T00:13:45;6.77;;;5.63;;
12947;SDS011;6539;49.476;8.484;2023-04-29T00:16:11;6.30;;;5.70;;
12947;SDS011;6539;49.476;8.484;2023-04-29T00:18:42;6.23;;;5.63;;
12947;SDS011;6539;49.476;8.484;2023-04-29T00:21:08;6.30;;;5.60;;
12947;SDS011;6539;49.476;8.484;2023-04-29T00:23:34;8.57;;;6.17;;
12947;SDS011;6539;49.476;8.484;2023-04-29T00:26:02;8.13;;;5.83;;
12947;SDS011;6539;49.476;8.484;2023-04-29T00:28:28;8.87;;;6.50;;
12947;SDS011;6539;49.476;8.484;2023-04-29T00:30:53;7.93;;;5.83;;
12947;SDS011;6539;49.476;8.484;2023-04-29T00:33:20;9.37;;;6.53;;
12947;SDS011;6539;49.476;8.484;2023-04-29T00:35:45;6.33;;;5.43;;
12947;SDS011;6539;49.476;8.484;2023-04-29T00:38:11;6.77;;;5.77;;
12947;SDS011;6539;49.476;8.484;2023-04-29T00:40:39;6.13;;;5.53;;
12947;SDS011;6539;49.476;8.484;2023-04-29T00:43:07;6.37;;;5.77;;
12947;SDS011;6539;49.476;8.484;2023-04-29T00:45:35;6.03;;;5.37;;
12947;SDS011;6539;49.476;8.484;2023-04-29T00:48:03;6.27;;;5.67;;
12947;SDS011;6539;49.476;8.484;2023-04-29T00:50:31;6.23;;;5.60;;
12947;SDS011;6539;49.476;8.484;2023-04-29T00:52:58;7.07;;;6.37;;
12947;SDS011;6539;49.476;8.484;2023-04-29T00:55:28;6.20;;;5.60;;
12947;SDS011;6539;49.476;8.484;2023-04-29T00:57:56;8.63;;;6.10;;
12947;SDS011;6539;49.476;8.484;2023-04-29T01:00:23;8.17;;;6.33;;
12947;SDS011;6539;49.476;8.484;2023-04-29T01:02:52;8.47;;;6.60;;
12947;SDS011;6539;49.476;8.484;2023-04-29T01:05:21;8.03;;;5.33;;
12947;SDS011;6539;49.476;8.484;2023-04-29T01:16:18;6.90;;;5.83;;
12947;SDS011;6539;49.476;8.484;2023-04-29T01:18:54;6.73;;;5.63;;
12947;SDS011;6539;49.476;8.484;2023-04-29T01:21:25;6.63;;;5.63;;
12947;SDS011;6539;49.476;8.484;2023-04-29T01:23:52;7.37;;;5.73;;
12947;SDS011;6539;49.476;8.484;2023-04-29T01:26:23;7.33;;;6.23;;
12947;SDS011;6539;49.476;8.484;2023-04-29T01:28:53;7.33;;;5.93;;
12947;SDS011;6539;49.476;8.484;2023-04-29T01:32:05;8.87;;;6.57;;
12947;SDS011;6539;49.476;8.484;2023-04-29T01:34:44;7.17;;;5.57;;
12947;SDS011;6539;49.476;8.484;2023-04-29T01:37:32;7.20;;;5.87;;
12947;SDS011;6539;49.476;8.484;2023-04-29T01:40:16;7.13;;;6.40;;
12947;SDS011;6539;49.476;8.484;2023-04-29T01:45:29;7.33;;;6.37;;
12947;SDS011;6539;49.476;8.484;2023-04-29T01:47:58;8.00;;;6.33;;
12947;SDS011;6539;49.476;8.484;2023-04-29T01:50:26;10.00;;;7.87;;
12947;SDS011;6539;49.476;8.484;2023-04-29T01:52:52;6.93;;;6.20;;
12947;SDS011;6539;49.476;8.484;2023-04-29T01:55:18;8.53;;;6.47;;
12947;SDS011;6539;49.476;8.484;2023-04-29T01:57:44;6.70;;;6.00;;
12947;SDS011;6539;49.476;8.484;2023-04-29T02:00:12;8.87;;;5.67;;
12947;SDS011;6539;49.476;8.484;2023-04-29T02:02:38;4.73;;;4.20;;
12947;SDS011;6539;49.476;8.484;2023-04-29T02:05:04;5.03;;;3.90;;
12947;SDS011;6539;49.476;8.484;2023-04-29T02:07:31;3.43;;;3.13;;
12947;SDS011;6539;49.476;8.484;2023-04-29T02:09:57;3.60;;;3.20;;
12947;SDS011;6539;49.476;8.484;2023-04-29T02:12:23;2.87;;;2.67;;
12947;SDS011;6539;49.476;8.484;2023-04-29T02:14:51;2.90;;;2.57;;
12947;SDS011;6539;49.476;8.484;2023-04-29T02:17:17;3.77;;;2.60;;
12947;SDS011;6539;49.476;8.484;2023-04-29T02:19:43;3.27;;;2.30;;
12947;SDS011;6539;49.476;8.484;2023-04-29T02:22:11;3.43;;;2.53;;
12947;SDS011;6539;49.476;8.484;2023-04-29T02:24:41;4.03;;;2.63;;
12947;SDS011;6539;49.476;8.484;2023-04-29T02:27:09;3.27;;;2.67;;
12947;SDS011;6539;49.476;8.484;2023-04-29T02:29:35;3.00;;;2.37;;
12947;SDS011;6539;49.476;8.484;2023-04-29T02:32:03;4.60;;;2.63;;
12947;SDS011;6539;49.476;8.484;2023-04-29T02:34:30;2.60;;;2.27;;
12947;SDS011;6539;49.476;8.484;2023-04-29T02:36:56;3.90;;;2.30;;
12947;SDS011;6539;49.476;8.484;2023-04-29T02:39:26;3.37;;;2.60;;
12947;SDS011;6539;49.476;8.484;2023-04-29T02:41:55;2.67;;;2.13;;
12947;SDS011;6539;49.476;8.484;2023-04-29T02:44:25;2.90;;;2.20;;
12947;SDS011;6539;49.476;8.484;2023-04-29T02:46:51;5.33;;;2.20;;
12947;SDS011;6539;49.476;8.484;2023-04-29T02:49:19;2.20;;;2.00;;
12947;SDS011;6539;49.476;8.484;2023-04-29T02:51:45;2.83;;;2.10;;
12947;SDS011;6539;49.476;8.484;2023-04-29T02:54:13;2.87;;;1.80;;
12947;SDS011;6539;49.476;8.484;2023-04-29T02:56:40;6.93;;;2.60;;
12947;SDS011;6539;49.476;8.484;2023-04-29T02:59:06;3.63;;;1.97;;
12947;SDS011;6539;49.476;8.484;2023-04-29T03:01:32;3.10;;;2.07;;
12947;SDS011;6539;49.476;8.484;2023-04-29T03:03:58;5.40;;;2.00;;
12947;SDS011;6539;49.476;8.484;2023-04-29T03:06:29;3.03;;;1.67;;
12947;SDS011;6539;49.476;8.484;2023-04-29T03:08:59;2.80;;;1.83;;
12947;SDS011;6539;49.476;8.484;2023-04-29T03:11:28;1.97;;;1.87;;
12947;SDS011;6539;49.476;8.484;2023-04-29T03:13:53;3.03;;;1.80;;
12947;SDS011;6539;49.476;8.484;2023-04-29T03:16:19;2.03;;;1.87;;
12947;SDS011;6539;49.476;8.484;2023-04-29T03:18:49;3.47;;;1.80;;
12947;SDS011;6539;49.476;8.484;2023-04-29T03:21:17;3.73;;;1.80;;
12947;SDS011;6539;49.476;8.484;2023-04-29T03:23:42;2.13;;;1.80;;
12947;SDS011;6539;49.476;8.484;2023-04-29T03:26:08;2.73;;;1.90;;
12947;SDS011;6539;49.476;8.484;2023-04-29T03:28:34;1.63;;;1.40;;
12947;SDS011;6539;49.476;8.484;2023-04-29T03:31:00;3.57;;;1.97;;
12947;SDS011;6539;49.476;8.484;2023-04-29T03:33:28;1.83;;;1.53;;
12947;SDS011;6539;49.476;8.484;2023-04-29T03:36:00;1.87;;;1.53;;
12947;SDS011;6539;49.476;8.484;2023-04-29T03:38:26;2.30;;;1.57;;
12947;SDS011;6539;49.476;8.484;2023-04-29T03:40:52;2.03;;;1.47;;
12947;SDS011;6539;49.476;8.484;2023-04-29T03:43:23;1.60;;;1.50;;
12947;SDS011;6539;49.476;8.484;2023-04-29T03:45:54;1.87;;;1.43;;
12947;SDS011;6539;49.476;8.484;2023-04-29T03:48:20;2.23;;;1.30;;
12947;SDS011;6539;49.476;8.484;2023-04-29T03:50:46;1.53;;;1.43;;
12947;SDS011;6539;49.476;8.484;2023-04-29T03:53:14;4.83;;;1.70;;
12947;SDS011;6539;49.476;8.484;2023-04-29T03:55:42;3.13;;;1.50;;
12947;SDS011;6539;49.476;8.484;2023-04-29T03:58:11;1.80;;;1.50;;
12947;SDS011;6539;49.476;8.484;2023-04-29T04:00:41;2.37;;;1.50;;
12947;SDS011;6539;49.476;8.484;2023-04-29T04:03:07;3.03;;;1.20;;
12947;SDS011;6539;49.476;8.484;2023-04-29T04:05:33;1.60;;;1.50;;
12947;SDS011;6539;49.476;8.484;2023-04-29T04:08:01;1.63;;;1.47;;
12947;SDS011;6539;49.476;8.484;2023-04-29T04:10:27;2.00;;;1.53;;
12947;SDS011;6539;49.476;8.484;2023-04-29T04:12:53;3.30;;;1.30;;
12947;SDS011;6539;49.476;8.484;2023-04-29T04:15:24;3.00;;;1.70;;
12947;SDS011;6539;49.476;8.484;2023-04-29T04:17:50;4.10;;;1.50;;
12947;SDS011;6539;49.476;8.484;2023-04-29T04:20:18;2.80;;;1.70;;
12947;SDS011;6539;49.476;8.484;2023-04-29T04:22:46;2.70;;;1.70;;
12947;SDS011;6539;49.476;8.484;2023-04-29T04:25:12;3.47;;;1.80;;
12947;SDS011;6539;49.476;8.484;2023-04-29T04:27:38;2.10;;;1.40;;
12947;SDS011;6539;49.476;8.484;2023-04-29T04:30:03;4.67;;;1.80;;
12947;SDS011;6539;49.476;8.484;2023-04-29T04:32:30;2.80;;;1.67;;
12947;SDS011;6539;49.476;8.484;2023-04-29T04:34:58;1.63;;;1.53;;
12947;SDS011;6539;49.476;8.484;2023-04-29T04:37:24;1.70;;;1.60;;
12947;SDS011;6539;49.476;8.484;2023-04-29T04:39:50;1.43;;;1.33;;
12947;SDS011;6539;49.476;8.484;2023-04-29T04:42:15;2.73;;;1.60;;
12947;SDS011;6539;49.476;8.484;2023-04-29T04:44:45;1.60;;;1.50;;
12947;SDS011;6539;49.476;8.484;2023-04-29T04:47:13;4.40;;;1.60;;
12947;SDS011;6539;49.476;8.484;2023-04-29T04:49:47;1.70;;;1.60;;
12947;SDS011;6539;49.476;8.484;2023-04-29T04:52:18;2.40;;;1.40;;
12947;SDS011;6539;49.476;8.484;2023-04-29T04:54:45;2.80;;;1.37;;
12947;SDS011;6539;49.476;8.484;2023-04-29T04:57:14;1.27;;;1.17;;
12947;SDS011;6539;49.476;8.484;2023-04-29T04:59:42;2.63;;;1.30;;
12947;SDS011;6539;49.476;8.484;2023-04-29T05:02:10;3.17;;;1.40;;
12947;SDS011;6539;49.476;8.484;2023-04-29T05:04:36;3.57;;;1.30;;
12947;SDS011;6539;49.476;8.484;2023-04-29T05:07:02;2.47;;;1.50;;
12947;SDS011;6539;49.476;8.484;2023-04-29T05:09:28;2.67;;;1.57;;
12947;SDS011;6539;49.476;8.484;2023-04-29T05:11:53;2.93;;;1.50;;
12947;SDS011;6539;49.476;8.484;2023-04-29T05:14:23;1.77;;;1.37;;
12947;SDS011;6539;49.476;8.484;2023-04-29T05:16:52;1.60;;;1.50;;
12947;SDS011;6539;49.476;8.484;2023-04-29T05:19:24;2.77;;;1.60;;
12947;SDS011;6539;49.476;8.484;2023-04-29T05:21:51;1.53;;;1.40;;
12947;SDS011;6539;49.476;8.484;2023-04-29T05:24:17;1.63;;;1.50;;
12947;SDS011;6539;49.476;8.484;2023-04-29T05:26:42;2.70;;;1.90;;
12947;SDS011;6539;49.476;8.484;2023-04-29T05:29:09;4.17;;;1.70;;
12947;SDS011;6539;49.476;8.484;2023-04-29T05:31:37;3.20;;;1.70;;
12947;SDS011;6539;49.476;8.484;2023-04-29T05:34:05;2.13;;;1.50;;
12947;SDS011;6539;49.476;8.484;2023-04-29T05:36:31;1.90;;;1.60;;
12947;SDS011;6539;49.476;8.484;2023-04-29T05:38:59;2.10;;;1.77;;
12947;SDS011;6539;49.476;8.484;2023-04-29T05:41:27;2.83;;;1.63;;
12947;SDS011;6539;49.476;8.484;2023-04-29T05:43:55;2.20;;;1.70;;
12947;SDS011;6539;49.476;8.484;2023-04-29T05:46:21;1.50;;;1.40;;
12947;SDS011;6539;49.476;8.484;2023-04-29T05:48:47;1.90;;;1.80;;
12947;SDS011;6539;49.476;8.484;2023-04-29T05:51:15;2.00;;;1.90;;
12947;SDS011;6539;49.476;8.484;2023-04-29T05:53:43;2.00;;;1.90;;
12947;SDS011;6539;49.476;8.484;2023-04-29T05:56:09;2.20;;;1.70;;
12947;SDS011;6539;49.476;8.484;2023-04-29T05:58:35;3.20;;;1.83;;
12947;SDS011;6539;49.476;8.484;2023-04-29T06:01:03;2.30;;;2.00;;
12947;SDS011;6539;49.476;8.484;2023-04-29T06:03:29;2.30;;;2.10;;
12947;SDS011;6539;49.476;8.484;2023-04-29T06:05:59;2.30;;;2.07;;
12947;SDS011;6539;49.476;8.484;2023-04-29T06:08:25;3.40;;;2.10;;
12947;SDS011;6539;49.476;8.484;2023-04-29T06:10:51;2.93;;;2.53;;
12947;SDS011;6539;49.476;8.484;2023-04-29T06:13:20;3.53;;;2.87;;
12947;SDS011;6539;49.476;8.484;2023-04-29T06:15:46;3.00;;;2.43;;
12947;SDS011;6539;49.476;8.484;2023-04-29T06:18:15;3.70;;;2.30;;
12947;SDS011;6539;49.476;8.484;2023-04-29T06:20:43;2.97;;;2.27;;
12947;SDS011;6539;49.476;8.484;2023-04-29T06:23:11;2.87;;;2.60;;
12947;SDS011;6539;49.476;8.484;2023-04-29T06:25:37;5.57;;;2.63;;
12947;SDS011;6539;49.476;8.484;2023-04-29T06:28:02;2.73;;;2.53;;
12947;SDS011;6539;49.476;8.484;2023-04-29T06:30:32;4.00;;;2.70;;
12947;SDS011;6539;49.476;8.484;2023-04-29T06:32:58;5.57;;;3.10;;
12947;SDS011;6539;49.476;8.484;2023-04-29T06:35:24;6.17;;;3.50;;
12947;SDS011;6539;49.476;8.484;2023-04-29T06:37:50;5.07;;;3.30;;
12947;SDS011;6539;49.476;8.484;2023-04-29T06:40:16;11.97;;;6.60;;
12947;SDS011;6539;49.476;8.484;2023-04-29T06:42:45;15.27;;;7.63;;
12947;SDS011;6539;49.476;8.484;2023-04-29T06:45:13;17.53;;;8.50;;
12947;SDS011;6539;49.476;8.484;2023-04-29T06:47:41;10.53;;;6.20;;
12947;SDS011;6539;49.476;8.484;2023-04-29T06:50:10;14.90;;;6.87;;
12947;SDS011;6539;49.476;8.484;2023-04-29T06:52:36;18.83;;;9.07;;
12947;SDS011;6539;49.476;8.484;2023-04-29T06:55:04;14.27;;;8.30;;
12947;SDS011;6539;49.476;8.484;2023-04-29T06:57:30;13.67;;;8.60;;
12947;SDS011;6539;49.476;8.484;2023-04-29T07:00:00;12.67;;;7.70;;
12947;SDS011;6539;49.476;8.484;2023-04-29T07:02:30;11.33;;;8.20;;
12947;SDS011;6539;49.476;8.484;2023-04-29T07:04:55;10.70;;;7.57;;
12947;SDS011;6539;49.476;8.484;2023-04-29T07:07:24;11.90;;;8.03;;
12947;SDS011;6539;49.476;8.484;2023-04-29T07:09:50;10.97;;;8.23;;
12947;SDS011;6539;49.476;8.484;2023-04-29T07:12:17;11.27;;;8.53;;
12947;SDS011;6539;49.476;8.484;2023-04-29T07:14:45;13.40;;;8.40;;
12947;SDS011;6539;49.476;8.484;2023-04-29T07:17:11;13.20;;;9.23;;
12947;SDS011;6539;49.476;8.484;2023-04-29T07:19:39;14.10;;;9.77;;
12947;SDS011;6539;49.476;8.484;2023-04-29T07:22:05;15.30;;;11.47;;
12947;SDS011;6539;49.476;8.484;2023-04-29T07:24:30;26.47;;;21.03;;
12947;SDS011;6539;49.476;8.484;2023-04-29T07:26:58;11.63;;;10.10;;
12947;SDS011;6539;49.476;8.484;2023-04-29T07:29:24;11.73;;;9.30;;
12947;SDS011;6539;49.476;8.484;2023-04-29T07:31:50;11.43;;;9.47;;
12947;SDS011;6539;49.476;8.484;2023-04-29T07:34:16;11.43;;;10.00;;
12947;SDS011;6539;49.476;8.484;2023-04-29T07:36:42;13.63;;;9.27;;
12947;SDS011;6539;49.476;8.484;2023-04-29T07:39:07;12.10;;;9.87;;
12947;SDS011;6539;49.476;8.484;2023-04-29T07:41:36;11.90;;;9.23;;
12947;SDS011;6539;49.476;8.484;2023-04-29T07:44:02;12.33;;;10.13;;
12947;SDS011;6539;49.476;8.484;2023-04-29T07:46:31;11.43;;;9.20;;
12947;SDS011;6539;49.476;8.484;2023-04-29T07:48:57;11.47;;;9.03;;
12947;SDS011;6539;49.476;8.484;2023-04-29T07:51:27;10.37;;;9.27;;
12947;SDS011;6539;49.476;8.484;2023-04-29T07:53:56;11.10;;;9.37;;
12947;SDS011;6539;49.476;8.484;2023-04-29T07:56:21;10.03;;;7.60;;
12947;SDS011;6539;49.476;8.484;2023-04-29T07:58:49;9.97;;;7.90;;
12947;SDS011;6539;49.476;8.484;2023-04-29T08:01:18;9.80;;;7.90;;
12947;SDS011;6539;49.476;8.484;2023-04-29T08:03:46;10.10;;;7.20;;
12947;SDS011;6539;49.476;8.484;2023-04-29T08:06:12;9.93;;;7.40;;
12947;SDS011;6539;49.476;8.484;2023-04-29T08:08:40;8.77;;;7.40;;
12947;SDS011;6539;49.476;8.484;2023-04-29T08:11:06;7.87;;;6.90;;
12947;SDS011;6539;49.476;8.484;2023-04-29T08:13:31;8.30;;;6.97;;
12947;SDS011;6539;49.476;8.484;2023-04-29T08:15:57;8.67;;;7.00;;
12947;SDS011;6539;49.476;8.484;2023-04-29T08:18:23;10.03;;;7.37;;
12947;SDS011;6539;49.476;8.484;2023-04-29T08:20:51;8.87;;;7.07;;
12947;SDS011;6539;49.476;8.484;2023-04-29T08:23:17;8.60;;;6.90;;
12947;SDS011;6539;49.476;8.484;2023-04-29T08:25:43;7.33;;;6.40;;
12947;SDS011;6539;49.476;8.484;2023-04-29T08:28:11;8.40;;;7.37;;
12947;SDS011;6539;49.476;8.484;2023-04-29T08:30:39;17.20;;;13.70;;
12947;SDS011;6539;49.476;8.484;2023-04-29T08:33:05;12.63;;;9.50;;
12947;SDS011;6539;49.476;8.484;2023-04-29T08:35:34;9.57;;;7.50;;
12947;SDS011;6539;49.476;8.484;2023-04-29T08:38:06;9.27;;;7.43;;
12947;SDS011;6539;49.476;8.484;2023-04-29T08:40:44;9.43;;;7.07;;
12947;SDS011;6539;49.476;8.484;2023-04-29T08:43:12;10.53;;;7.97;;
12947;SDS011;6539;49.476;8.484;2023-04-29T08:45:41;9.53;;;7.83;;
12947;SDS011;6539;49.476;8.484;2023-04-29T08:48:12;9.23;;;7.60;;
12947;SDS011;6539;49.476;8.484;2023-04-29T08:50:40;12.33;;;7.67;;
12947;SDS011;6539;49.476;8.484;2023-04-29T08:53:12;9.37;;;6.93;;
12947;SDS011;6539;49.476;8.484;2023-04-29T08:55:40;13.73;;;8.87;;
12947;SDS011;6539;49.476;8.484;2023-04-29T08:58:12;10.43;;;8.10;;
12947;SDS011;6539;49.476;8.484;2023-04-29T09:00:46;11.20;;;7.70;;
12947;SDS011;6539;49.476;8.484;2023-04-29T09:03:16;11.50;;;8.73;;
12947;SDS011;6539;49.476;8.484;2023-04-29T09:05:54;11.67;;;10.07;;
12947;SDS011;6539;49.476;8.484;2023-04-29T09:08:24;10.53;;;7.03;;
12947;SDS011;6539;49.476;8.484;2023-04-29T09:10:57;10.63;;;7.70;;
12947;SDS011;6539;49.476;8.484;2023-04-29T09:13:27;8.40;;;7.20;;
12947;SDS011;6539;49.476;8.484;2023-04-29T09:15:57;10.47;;;7.97;;
12947;SDS011;6539;49.476;8.484;2023-04-29T09:23:41;10.07;;;7.13;;
12947;SDS011;6539;49.476;8.484;2023-04-29T09:26:07;8.20;;;6.83;;
12947;SDS011;6539;49.476;8.484;2023-04-29T09:28:33;8.00;;;6.70;;
12947;SDS011;6539;49.476;8.484;2023-04-29T09:31:00;7.50;;;6.63;;
12947;SDS011;6539;49.476;8.484;2023-04-29T09:33:30;8.10;;;6.83;;
12947;SDS011;6539;49.476;8.484;2023-04-29T09:35:59;9.17;;;7.33;;
12947;SDS011;6539;49.476;8.484;2023-04-29T09:38:25;7.80;;;6.40;;
12947;SDS011;6539;49.476;8.484;2023-04-29T09:40:53;7.70;;;6.47;;
12947;SDS011;6539;49.476;8.484;2023-04-29T09:43:20;8.63;;;5.97;;
12947;SDS011;6539;49.476;8.484;2023-04-29T09:45:47;8.77;;;6.57;;
12947;SDS011;6539;49.476;8.484;2023-04-29T09:48:18;7.37;;;5.90;;
12947;SDS011;6539;49.476;8.484;2023-04-29T09:50:58;7.90;;;6.63;;
12947;SDS011;6539;49.476;8.484;2023-04-29T09:53:27;6.80;;;5.90;;
12947;SDS011;6539;49.476;8.484;2023-04-29T09:58:33;21.77;;;17.90;;
12947;SDS011;6539;49.476;8.484;2023-04-29T10:01:01;11.70;;;9.50;;
12947;SDS011;6539;49.476;8.484;2023-04-29T10:03:35;8.23;;;6.57;;
12947;SDS011;6539;49.476;8.484;2023-04-29T10:06:06;8.50;;;6.33;;
12947;SDS011;6539;49.476;8.484;2023-04-29T10:08:32;9.87;;;6.37;;
12947;SDS011;6539;49.476;8.484;2023-04-29T10:11:02;6.67;;;5.30;;
12947;SDS011;6539;49.476;8.484;2023-04-29T10:13:33;12.93;;;6.10;;
12947;SDS011;6539;49.476;8.484;2023-04-29T10:18:55;9.97;;;6.67;;
12947;SDS011;6539;49.476;8.484;2023-04-29T10:21:28;6.27;;;5.20;;
12947;SDS011;6539;49.476;8.484;2023-04-29T10:24:01;7.10;;;5.70;;
12947;SDS011;6539;49.476;8.484;2023-04-29T10:26:30;6.43;;;5.70;;
12947;SDS011;6539;49.476;8.484;2023-04-29T10:28:58;5.43;;;4.70;;
12947;SDS011;6539;49.476;8.484;2023-04-29T10:31:25;6.43;;;5.73;;
12947;SDS011;6539;49.476;8.484;2023-04-29T10:33:53;7.23;;;6.23;;
12947;SDS011;6539;49.476;8.484;2023-04-29T10:36:24;7.07;;;6.00;;
12947;SDS011;6539;49.476;8.484;2023-04-29T10:38:55;6.20;;;5.60;;
12947;SDS011;6539;49.476;8.484;2023-04-29T10:41:36;7.10;;;5.80;;
12947;SDS011;6539;49.476;8.484;2023-04-29T10:44:11;7.20;;;5.70;;
12947;SDS011;6539;49.476;8.484;2023-04-29T10:46:38;6.83;;;6.00;;
12947;SDS011;6539;49.476;8.484;2023-04-29T10:49:05;5.47;;;4.53;;
12947;SDS011;6539;49.476;8.484;2023-04-29T10:51:44;7.80;;;5.57;;
12947;SDS011;6539;49.476;8.484;2023-04-29T10:54:13;6.03;;;5.13;;
12947;SDS011;6539;49.476;8.484;2023-04-29T10:59:18;5.60;;;4.73;;
12947;SDS011;6539;49.476;8.484;2023-04-29T11:02:04;5.17;;;4.13;;
12947;SDS011;6539;49.476;8.484;2023-04-29T11:04:30;4.40;;;3.70;;
12947;SDS011;6539;49.476;8.484;2023-04-29T11:06:58;4.43;;;3.50;;
12947;SDS011;6539;49.476;8.484;2023-04-29T11:09:27;5.90;;;4.13;;
12947;SDS011;6539;49.476;8.484;2023-04-29T11:11:56;4.07;;;3.67;;
12947;SDS011;6539;49.476;8.484;2023-04-29T11:14:26;4.07;;;3.57;;
12947;SDS011;6539;49.476;8.484;2023-04-29T11:17:15;6.00;;;4.10;;
12947;SDS011;6539;49.476;8.484;2023-04-29T11:19:52;4.00;;;3.47;;
12947;SDS011;6539;49.476;8.484;2023-04-29T11:24:55;6.40;;;4.90;;
12947;SDS011;6539;49.476;8.484;2023-04-29T11:27:31;7.57;;;6.23;;
12947;SDS011;6539;49.476;8.484;2023-04-29T11:30:00;7.00;;;5.10;;
12947;SDS011;6539;49.476;8.484;2023-04-29T11:32:39;6.00;;;5.10;;
12947;SDS011;6539;49.476;8.484;2023-04-29T11:35:11;5.57;;;5.07;;
12947;SDS011;6539;49.476;8.484;2023-04-29T11:37:38;12.90;;;10.87;;
12947;SDS011;6539;49.476;8.484;2023-04-29T11:40:09;7.87;;;7.03;;
12947;SDS011;6539;49.476;8.484;2023-04-29T11:42:42;5.63;;;4.77;;
12947;SDS011;6539;49.476;8.484;2023-04-29T11:45:13;6.47;;;4.70;;
12947;SDS011;6539;49.476;8.484;2023-04-29T11:47:42;5.60;;;3.90;;
12947;SDS011;6539;49.476;8.484;2023-04-29T11:50:12;4.43;;;4.03;;
12947;SDS011;6539;49.476;8.484;2023-04-29T11:52:43;5.73;;;4.33;;
12947;SDS011;6539;49.476;8.484;2023-04-29T11:55:12;5.50;;;4.10;;
12947;SDS011;6539;49.476;8.484;2023-04-29T11:57:38;6.93;;;4.40;;
12947;SDS011;6539;49.476;8.484;2023-04-29T12:00:10;4.43;;;4.03;;
12947;SDS011;6539;49.476;8.484;2023-04-29T12:02:37;6.63;;;4.47;;
12947;SDS011;6539;49.476;8.484;2023-04-29T12:05:05;5.20;;;4.30;;
12947;SDS011;6539;49.476;8.484;2023-04-29T12:07:32;4.77;;;4.20;;
12947;SDS011;6539;49.476;8.484;2023-04-29T12:10:01;4.63;;;3.87;;
12947;SDS011;6539;49.476;8.484;2023-04-29T12:12:36;2.70;;;2.50;;
12947;SDS011;6539;49.476;8.484;2023-04-29T12:15:07;3.50;;;2.67;;
12947;SDS011;6539;49.476;8.484;2023-04-29T12:17:42;2.30;;;2.10;;
12947;SDS011;6539;49.476;8.484;2023-04-29T12:20:10;3.17;;;2.47;;
12947;SDS011;6539;49.476;8.484;2023-04-29T12:22:37;5.57;;;3.53;;
12947;SDS011;6539;49.476;8.484;2023-04-29T12:25:05;5.17;;;4.67;;
12947;SDS011;6539;49.476;8.484;2023-04-29T12:27:35;3.33;;;3.03;;
12947;SDS011;6539;49.476;8.484;2023-04-29T12:30:05;3.20;;;2.77;;
12947;SDS011;6539;49.476;8.484;2023-04-29T12:32:35;3.13;;;2.83;;
12947;SDS011;6539;49.476;8.484;2023-04-29T12:35:03;4.73;;;3.20;;
12947;SDS011;6539;49.476;8.484;2023-04-29T12:37:29;3.47;;;2.37;;
12947;SDS011;6539;49.476;8.484;2023-04-29T12:40:00;2.83;;;2.53;;
12947;SDS011;6539;49.476;8.484;2023-04-29T12:42:30;3.63;;;2.50;;
12947;SDS011;6539;49.476;8.484;2023-04-29T12:44:58;4.97;;;3.10;;
12947;SDS011;6539;49.476;8.484;2023-04-29T12:47:23;4.03;;;2.10;;
12947;SDS011;6539;49.476;8.484;2023-04-29T12:50:00;3.20;;;2.90;;
12947;SDS011;6539;49.476;8.484;2023-04-29T12:52:33;2.93;;;2.70;;
12947;SDS011;6539;49.476;8.484;2023-04-29T12:54:59;3.17;;;2.87;;
12947;SDS011;6539;49.476;8.484;2023-04-29T12:57:29;4.67;;;3.10;;
12947;SDS011;6539;49.476;8.484;2023-04-29T12:59:58;2.73;;;2.40;;
12947;SDS011;6539;49.476;8.484;2023-04-29T13:02:24;3.30;;;3.00;;
12947;SDS011;6539;49.476;8.484;2023-04-29T13:04:50;3.30;;;3.00;;
12947;SDS011;6539;49.476;8.484;2023-04-29T13:07:16;3.03;;;2.70;;
12947;SDS011;6539;49.476;8.484;2023-04-29T13:09:44;4.50;;;3.67;;
12947;SDS011;6539;49.476;8.484;2023-04-29T13:12:14;2.90;;;2.70;;
12947;SDS011;6539;49.476;8.484;2023-04-29T13:14:40;3.50;;;3.07;;
12947;SDS011;6539;49.476;8.484;2023-04-29T13:17:08;3.60;;;3.13;;
12947;SDS011;6539;49.476;8.484;2023-04-29T13:19:37;3.60;;;3.07;;
12947;SDS011;6539;49.476;8.484;2023-04-29T13:22:03;4.37;;;3.13;;
12947;SDS011;6539;49.476;8.484;2023-04-29T13:24:33;3.40;;;2.87;;
12947;SDS011;6539;49.476;8.484;2023-04-29T13:27:00;4.30;;;3.40;;
12947;SDS011;6539;49.476;8.484;2023-04-29T13:29:28;5.43;;;3.73;;
12947;SDS011;6539;49.476;8.484;2023-04-29T13:31:56;3.50;;;3.20;;
12947;SDS011;6539;49.476;8.484;2023-04-29T13:34:22;3.83;;;3.47;;
12947;SDS011;6539;49.476;8.484;2023-04-29T13:36:47;3.97;;;3.20;;
12947;SDS011;6539;49.476;8.484;2023-04-29T13:39:13;3.27;;;2.97;;
12947;SDS011;6539;49.476;8.484;2023-04-29T13:41:39;3.60;;;3.10;;
12947;SDS011;6539;49.476;8.484;2023-04-29T13:44:07;3.93;;;3.13;;
12947;SDS011;6539;49.476;8.484;2023-04-29T13:46:33;3.50;;;3.20;;
12947;SDS011;6539;49.476;8.484;2023-04-29T13:48:58;3.93;;;3.40;;
12947;SDS011;6539;49.476;8.484;2023-04-29T13:51:26;6.40;;;3.77;;
12947;SDS011;6539;49.476;8.484;2023-04-29T13:53:52;4.77;;;3.90;;
12947;SDS011;6539;49.476;8.484;2023-04-29T13:56:20;5.97;;;4.30;;
12947;SDS011;6539;49.476;8.484;2023-04-29T13:58:49;4.10;;;3.70;;
12947;SDS011;6539;49.476;8.484;2023-04-29T14:01:18;4.17;;;3.77;;
12947;SDS011;6539;49.476;8.484;2023-04-29T14:03:46;4.63;;;3.30;;
12947;SDS011;6539;49.476;8.484;2023-04-29T14:06:13;4.83;;;4.13;;
12947;SDS011;6539;49.476;8.484;2023-04-29T14:08:39;4.17;;;3.77;;
12947;SDS011;6539;49.476;8.484;2023-04-29T14:11:04;4.73;;;3.83;;
12947;SDS011;6539;49.476;8.484;2023-04-29T14:13:31;5.80;;;4.00;;
12947;SDS011;6539;49.476;8.484;2023-04-29T14:15:56;4.60;;;3.63;;
12947;SDS011;6539;49.476;8.484;2023-04-29T14:18:26;4.37;;;3.63;;
12947;SDS011;6539;49.476;8.484;2023-04-29T14:20:54;4.00;;;3.60;;
12947;SDS011;6539;49.476;8.484;2023-04-29T14:23:19;4.17;;;3.67;;
12947;SDS011;6539;49.476;8.484;2023-04-29T14:25:48;4.73;;;4.00;;
12947;SDS011;6539;49.476;8.484;2023-04-29T14:28:14;5.50;;;4.27;;
12947;SDS011;6539;49.476;8.484;2023-04-29T14:30:39;4.77;;;3.73;;
12947;SDS011;6539;49.476;8.484;2023-04-29T14:33:10;5.13;;;3.97;;
12947;SDS011;6539;49.476;8.484;2023-04-29T14:35:36;5.23;;;3.87;;
12947;SDS011;6539;49.476;8.484;2023-04-29T14:38:01;4.60;;;3.80;;
12947;SDS011;6539;49.476;8.484;2023-04-29T14:40:27;4.33;;;3.93;;
12947;SDS011;6539;49.476;8.484;2023-04-29T14:42:55;5.53;;;4.43;;
12947;SDS011;6539;49.476;8.484;2023-04-29T14:45:21;6.13;;;4.80;;
12947;SDS011;6539;49.476;8.484;2023-04-29T14:47:49;4.90;;;4.33;;
12947;SDS011;6539;49.476;8.484;2023-04-29T14:50:17;5.03;;;4.60;;
12947;SDS011;6539;49.476;8.484;2023-04-29T14:52:47;4.77;;;4.33;;
12947;SDS011;6539;49.476;8.484;2023-04-29T14:55:12;4.83;;;4.37;;
12947;SDS011;6539;49.476;8.484;2023-04-29T14:57:39;4.47;;;4.00;;
12947;SDS011;6539;49.476;8.484;2023-04-29T15:00:05;7.73;;;4.33;;
12947;SDS011;6539;49.476;8.484;2023-04-29T15:02:32;4.87;;;4.20;;
12947;SDS011;6539;49.476;8.484;2023-04-29T15:04:58;4.97;;;4.47;;
12947;SDS011;6539;49.476;8.484;2023-04-29T15:07:26;6.50;;;5.00;;
12947;SDS011;6539;49.476;8.484;2023-04-29T15:09:54;4.67;;;4.20;;
12947;SDS011;6539;49.476;8.484;2023-04-29T15:12:19;5.40;;;4.30;;
12947;SDS011;6539;49.476;8.484;2023-04-29T15:14:48;5.53;;;4.60;;
12947;SDS011;6539;49.476;8.484;2023-04-29T15:17:14;7.57;;;5.47;;
12947;SDS011;6539;49.476;8.484;2023-04-29T15:19:43;5.20;;;4.57;;
12947;SDS011;6539;49.476;8.484;2023-04-29T15:22:09;5.27;;;4.77;;
12947;SDS011;6539;49.476;8.484;2023-04-29T15:24:37;5.43;;;4.90;;
12947;SDS011;6539;49.476;8.484;2023-04-29T15:27:03;5.33;;;4.83;;
12947;SDS011;6539;49.476;8.484;2023-04-29T15:29:29;4.87;;;4.37;;
12947;SDS011;6539;49.476;8.484;2023-04-29T15:31:56;4.70;;;4.13;;
12947;SDS011;6539;49.476;8.484;2023-04-29T15:34:22;5.50;;;4.97;;